createdAt,value
2023-03-05T00:01:29.284Z,27.90
2023-03-05T00:03:58.227Z,34.03
2023-03-05T00:06:28.948Z,35.00
2023-03-05T00:08:58.984Z,34.27
2023-03-05T00:11:30.020Z,48.13
2023-03-05T00:13:59.424Z,32.60
2023-03-05T00:16:28.532Z,39.40
2023-03-05T00:19:00.135Z,40.50
2023-03-05T00:21:29.775Z,40.80
2023-03-05T00:24:02.155Z,32.77
2023-03-05T00:26:30.868Z,42.60
2023-03-05T00:28:59.332Z,45.57
2023-03-05T00:31:30.348Z,58.30
2023-03-05T00:34:00.349Z,56.50
2023-03-05T00:36:28.959Z,54.43
2023-03-05T00:38:59.137Z,73.60
2023-03-05T00:41:27.453Z,56.87
2023-03-05T00:43:55.471Z,68.40
2023-03-05T00:46:24.519Z,50.77
2023-03-05T00:48:52.585Z,54.90
2023-03-05T00:51:20.863Z,65.80
2023-03-05T00:53:49.196Z,70.97
2023-03-05T00:56:18.685Z,64.60
2023-03-05T00:58:46.780Z,69.30
2023-03-05T01:01:15.333Z,62.47
2023-03-05T01:03:43.586Z,55.80
2023-03-05T01:06:13.755Z,49.77
2023-03-05T01:08:41.739Z,69.70
2023-03-05T01:11:10.597Z,54.47
2023-03-05T01:13:40.010Z,35.67
2023-03-05T01:16:08.482Z,18.27
2023-03-05T01:18:38.295Z,51.27
2023-03-05T01:21:07.383Z,74.77
2023-03-05T01:23:37.328Z,50.90
2023-03-05T01:26:06.497Z,40.33
2023-03-05T01:28:34.499Z,40.33
2023-03-05T01:31:07.591Z,49.83
2023-03-05T01:33:35.621Z,54.40
2023-03-05T01:36:03.635Z,67.17
2023-03-05T01:38:31.664Z,59.83
2023-03-05T01:40:59.719Z,66.80
2023-03-05T01:43:30.005Z,55.63
2023-03-05T01:46:29.753Z,58.87
2023-03-05T01:49:03.641Z,50.47
2023-03-05T01:51:34.068Z,42.20
2023-03-05T01:54:03.278Z,56.17
2023-03-05T01:56:32.314Z,61.97
2023-03-05T01:59:04.276Z,57.87
2023-03-05T02:01:37.864Z,66.50
2023-03-05T02:04:06.401Z,46.60
2023-03-05T02:06:35.447Z,51.23
2023-03-05T02:09:03.467Z,37.50
2023-03-05T02:11:31.774Z,55.27
2023-03-05T02:14:00.720Z,43.30
2023-03-05T02:16:35.822Z,34.00
2023-03-05T02:19:06.816Z,54.07
2023-03-05T02:21:41.527Z,39.83
2023-03-05T02:24:13.775Z,39.70
2023-03-05T02:26:43.150Z,61.73
2023-03-05T02:29:14.072Z,47.97
2023-03-05T02:31:42.115Z,51.43
2023-03-05T02:34:10.273Z,52.27
2023-03-05T02:36:39.710Z,66.07
2023-03-05T02:39:08.962Z,62.10
2023-03-05T02:41:37.201Z,78.47
2023-03-05T02:44:05.389Z,43.53
2023-03-05T02:46:33.391Z,78.37
2023-03-05T02:49:01.512Z,68.67
2023-03-05T02:51:29.610Z,76.03
2023-03-05T02:53:59.013Z,82.80
2023-03-05T02:56:27.029Z,76.90
2023-03-05T02:58:54.996Z,63.40
2023-03-05T03:01:23.108Z,82.07
2023-03-05T03:03:51.127Z,69.37
2023-03-05T03:06:19.201Z,68.83
2023-03-05T03:08:47.250Z,77.17
2023-03-05T03:11:17.620Z,60.23
2023-03-05T03:13:45.653Z,78.70
2023-03-05T03:16:15.840Z,76.63
2023-03-05T03:18:44.497Z,71.83
2023-03-05T03:21:19.160Z,57.00
2023-03-05T03:23:47.310Z,63.53
2023-03-05T03:26:16.774Z,73.00
2023-03-05T03:28:45.082Z,94.70
2023-03-05T03:31:13.248Z,99.57
2023-03-05T03:33:41.456Z,98.03
2023-03-05T03:36:10.150Z,97.23
2023-03-05T03:38:38.249Z,87.90
2023-03-05T03:41:08.056Z,78.37
2023-03-05T03:43:38.006Z,78.93
2023-03-05T03:46:07.307Z,69.17
2023-03-05T03:48:36.050Z,57.67
2023-03-05T03:51:06.575Z,73.17
2023-03-05T03:53:34.709Z,67.27
2023-03-05T03:56:03.296Z,57.93
2023-03-05T03:58:31.609Z,51.50
2023-03-05T04:01:01.190Z,59.50
2023-03-05T04:03:29.226Z,37.63
2023-03-05T04:05:57.235Z,59.10
2023-03-05T04:08:25.260Z,40.50
2023-03-05T04:10:53.280Z,50.53
2023-03-05T04:13:21.368Z,59.10
2023-03-05T04:15:50.289Z,50.00
2023-03-05T04:18:19.716Z,60.47
2023-03-05T04:20:47.860Z,75.07
2023-03-05T04:23:16.292Z,70.13
2023-03-05T04:25:44.281Z,76.07
2023-03-05T04:28:12.360Z,61.97
2023-03-05T04:30:40.409Z,58.57
2023-03-05T04:33:08.520Z,72.97
2023-03-05T04:35:38.265Z,59.13
2023-03-05T04:38:06.276Z,69.87
2023-03-05T04:40:34.397Z,68.73
2023-03-05T04:43:02.619Z,71.93
2023-03-05T04:45:30.707Z,68.50
2023-03-05T04:47:58.744Z,67.30
2023-03-05T04:50:27.196Z,71.63
2023-03-05T04:52:56.598Z,81.03
2023-03-05T04:55:24.806Z,76.40
2023-03-05T04:57:52.835Z,69.53
2023-03-05T05:00:21.793Z,70.73
2023-03-05T05:02:51.459Z,71.07
2023-03-05T05:05:21.941Z,71.27
2023-03-05T05:07:50.120Z,75.03
2023-03-05T05:10:19.619Z,69.57
2023-03-05T05:12:47.673Z,73.63
2023-03-05T05:15:17.498Z,65.93
2023-03-05T05:17:45.734Z,71.70
2023-03-05T05:20:16.072Z,72.10
2023-03-05T05:22:44.305Z,71.93
2023-03-05T05:25:12.803Z,45.37
2023-03-05T05:27:42.333Z,88.90
2023-03-05T05:30:13.426Z,79.73
2023-03-05T05:32:41.563Z,57.97
2023-03-05T05:35:10.954Z,60.50
2023-03-05T05:37:39.040Z,59.83
2023-03-05T05:40:08.587Z,52.70
2023-03-05T05:42:37.062Z,75.00
2023-03-05T05:45:07.722Z,90.27
2023-03-05T05:47:35.807Z,86.30
2023-03-05T05:50:03.824Z,98.03
2023-03-05T05:52:32.127Z,80.77
2023-03-05T05:55:00.138Z,74.83
2023-03-05T05:57:28.185Z,63.60
2023-03-05T05:59:56.155Z,76.83
2023-03-05T06:02:27.693Z,83.27
2023-03-05T06:04:58.063Z,92.87
2023-03-05T06:07:26.297Z,91.23
2023-03-05T06:09:54.368Z,97.73
2023-03-05T06:12:22.438Z,96.57
2023-03-05T06:14:50.466Z,97.63
2023-03-05T06:17:28.751Z,76.33
2023-03-05T06:20:01.029Z,76.60
2023-03-05T06:22:29.467Z,96.67
2023-03-05T06:24:57.578Z,91.77
2023-03-05T06:27:25.562Z,103.00
2023-03-05T06:29:54.448Z,94.87
2023-03-05T06:32:22.448Z,106.93
2023-03-05T06:34:50.887Z,105.80
2023-03-05T06:37:20.482Z,106.33
2023-03-05T06:39:48.619Z,104.30
2023-03-05T06:42:17.867Z,91.50
2023-03-05T06:44:47.947Z,117.90
2023-03-05T06:47:16.536Z,119.23
2023-03-05T06:49:44.611Z,114.53
2023-03-05T06:52:12.858Z,105.47
2023-03-05T06:54:42.343Z,106.37
2023-03-05T06:57:11.470Z,92.97
2023-03-05T06:59:39.504Z,106.73
2023-03-05T07:02:07.891Z,82.20
2023-03-05T07:04:35.954Z,85.60
2023-03-05T07:07:04.064Z,93.40
2023-03-05T07:09:32.159Z,98.30
2023-03-05T07:12:01.608Z,106.17
2023-03-05T07:14:29.618Z,98.57
2023-03-05T07:16:57.654Z,102.53
2023-03-05T07:19:25.659Z,110.37
2023-03-05T07:21:53.647Z,97.80
2023-03-05T07:24:21.657Z,95.33
2023-03-05T07:26:49.708Z,88.50
2023-03-05T07:29:19.061Z,104.20
2023-03-05T07:31:47.149Z,125.17
2023-03-05T07:34:15.154Z,115.50
2023-03-05T07:36:43.368Z,110.37
2023-03-05T07:39:12.577Z,122.77
2023-03-05T07:41:40.896Z,121.17
2023-03-05T07:44:09.028Z,120.70
2023-03-05T07:46:38.921Z,124.67
2023-03-05T07:49:07.126Z,103.90
2023-03-05T07:51:35.190Z,118.47
2023-03-05T07:54:03.338Z,108.77
2023-03-05T07:56:35.216Z,116.23
2023-03-05T07:59:05.651Z,96.27
2023-03-05T08:01:34.471Z,114.27
2023-03-05T08:04:04.669Z,108.10
2023-03-05T08:06:32.996Z,116.43
2023-03-05T08:09:01.701Z,122.87
2023-03-05T08:11:29.705Z,126.70
2023-03-05T08:13:59.313Z,121.03
2023-03-05T08:16:27.982Z,123.60
2023-03-05T08:18:57.279Z,133.73
2023-03-05T08:21:29.322Z,126.67
2023-03-05T08:23:58.277Z,128.60
2023-03-05T08:26:28.851Z,129.80
2023-03-05T08:28:56.966Z,138.87
2023-03-05T08:31:26.983Z,129.90
2023-03-05T08:33:56.675Z,131.63
2023-03-05T08:36:26.116Z,133.90
2023-03-05T08:38:54.195Z,138.07
2023-03-05T08:41:22.528Z,137.07
2023-03-05T08:43:50.547Z,133.30
2023-03-05T08:46:18.948Z,130.00
2023-03-05T08:48:47.030Z,141.07
2023-03-05T08:51:17.012Z,126.57
2023-03-05T08:53:47.443Z,129.33
2023-03-05T08:56:15.915Z,142.23
2023-03-05T08:58:44.674Z,139.57
2023-03-05T09:01:13.062Z,146.77
2023-03-05T09:03:42.979Z,139.73
2023-03-05T09:06:12.948Z,148.93
2023-03-05T09:08:41.170Z,131.27
2023-03-05T09:11:12.795Z,141.10
2023-03-05T09:13:41.066Z,128.37
2023-03-05T09:16:12.459Z,137.13
2023-03-05T09:18:41.170Z,142.37
2023-03-05T09:21:10.830Z,150.73
2023-03-05T09:23:39.358Z,146.30
2023-03-05T09:26:08.160Z,151.90
2023-03-05T09:28:37.837Z,145.83
2023-03-05T09:31:07.443Z,143.43
2023-03-05T09:33:35.772Z,161.30
2023-03-05T09:36:04.896Z,150.33
2023-03-05T09:38:33.058Z,162.60
2023-03-05T09:41:07.792Z,132.57
2023-03-05T09:43:49.500Z,129.97
2023-03-05T09:46:28.220Z,137.83
2023-03-05T09:49:04.367Z,131.30
2023-03-05T09:51:39.037Z,133.27
2023-03-05T09:54:14.195Z,130.53
2023-03-05T09:56:45.798Z,135.80
2023-03-05T09:59:27.518Z,133.80
2023-03-05T10:02:00.714Z,131.90
2023-03-05T10:04:38.882Z,135.07
2023-03-05T10:07:13.456Z,142.60
2023-03-05T10:09:47.224Z,143.43
2023-03-05T10:12:25.334Z,138.27
2023-03-05T10:14:55.500Z,117.97
2023-03-05T10:17:58.982Z,128.40
2023-03-05T10:20:58.849Z,129.83
2023-03-05T10:23:46.315Z,131.07
2023-03-05T10:26:32.227Z,131.20
2023-03-05T10:29:11.526Z,128.87
2023-03-05T10:31:58.278Z,123.63
2023-03-05T10:34:49.440Z,138.23
2023-03-05T10:37:47.557Z,135.90
2023-03-05T10:40:23.335Z,121.60
2023-03-05T10:42:59.761Z,116.23
2023-03-05T10:45:33.274Z,133.57
2023-03-05T10:48:08.694Z,121.53
2023-03-05T10:50:42.822Z,120.27
2023-03-05T10:53:20.065Z,118.43
2023-03-05T10:55:48.061Z,121.43
2023-03-05T10:58:17.814Z,129.57
2023-03-05T11:01:00.293Z,128.07
2023-03-05T11:03:52.117Z,134.53
2023-03-05T11:06:30.064Z,134.90
2023-03-05T11:09:15.765Z,149.37
2023-03-05T11:11:43.996Z,144.43
2023-03-05T11:14:29.980Z,146.27
2023-03-05T11:16:58.459Z,135.77
2023-03-05T11:19:31.675Z,143.13
2023-03-05T11:22:20.635Z,132.17
2023-03-05T11:25:06.830Z,131.87
2023-03-05T11:27:38.143Z,136.07
2023-03-05T11:30:20.851Z,125.67
2023-03-05T11:32:49.293Z,128.20
2023-03-05T11:35:32.636Z,117.47
2023-03-05T11:38:05.588Z,118.03
2023-03-05T11:40:36.796Z,117.33
2023-03-05T11:43:05.884Z,125.23
2023-03-05T11:45:34.456Z,117.87
2023-03-05T11:48:10.532Z,98.73
2023-03-05T11:50:44.886Z,88.33
2023-03-05T11:53:18.878Z,115.67
2023-03-05T11:55:49.992Z,118.83
2023-03-05T11:58:29.857Z,138.00
2023-03-05T12:00:58.463Z,132.17
2023-03-05T12:03:31.660Z,146.60
2023-03-05T12:06:06.642Z,173.67
2023-03-05T12:08:38.076Z,179.67
2023-03-05T12:11:09.009Z,180.17
2023-03-05T12:13:43.208Z,183.40
2023-03-05T12:16:19.868Z,197.20
2023-03-05T12:18:59.332Z,179.37
2023-03-05T12:21:34.911Z,204.90
2023-03-05T12:24:04.905Z,183.77
2023-03-05T12:26:57.867Z,201.87
2023-03-05T12:29:30.377Z,203.57
2023-03-05T12:31:59.235Z,185.97
2023-03-05T12:34:58.280Z,193.23
2023-03-05T12:37:59.583Z,199.23
2023-03-05T12:40:28.785Z,186.30
2023-03-05T12:42:58.567Z,173.03
2023-03-05T12:45:42.691Z,177.20
2023-03-05T12:48:42.871Z,159.77
2023-03-05T12:51:40.626Z,180.30
2023-03-05T12:54:30.096Z,183.40
2023-03-05T12:57:00.076Z,185.30
2023-03-05T12:59:36.754Z,188.10
2023-03-05T13:02:16.877Z,197.47
2023-03-05T13:04:47.135Z,200.83
2023-03-05T13:07:17.650Z,211.17
2023-03-05T13:09:55.704Z,207.90
2023-03-05T13:12:25.564Z,184.60
2023-03-05T13:15:02.264Z,180.43
2023-03-05T13:17:38.177Z,191.27
2023-03-05T13:20:26.604Z,170.07
2023-03-05T13:23:05.460Z,178.13
2023-03-05T13:25:35.080Z,166.57
2023-03-05T13:28:11.013Z,176.77
2023-03-05T13:30:39.117Z,161.80
2023-03-05T13:33:07.442Z,156.97
2023-03-05T13:35:36.395Z,167.47
2023-03-05T13:38:04.442Z,155.33
2023-03-05T13:40:35.795Z,159.67
2023-03-05T13:43:12.057Z,153.67
2023-03-05T13:45:40.860Z,152.37
2023-03-05T13:48:19.482Z,152.33
2023-03-05T13:50:48.757Z,138.87
2023-03-05T13:53:19.246Z,157.10
2023-03-05T13:55:50.017Z,139.40
2023-03-05T13:58:47.318Z,150.30
2023-03-05T14:01:22.949Z,147.33
2023-03-05T14:03:52.483Z,146.43
2023-03-05T14:06:22.704Z,157.50
2023-03-05T14:08:53.283Z,150.53
2023-03-05T14:11:23.195Z,157.97
2023-03-05T14:14:03.505Z,145.80
2023-03-05T14:16:33.757Z,160.67
2023-03-05T14:19:05.070Z,158.73
2023-03-05T14:21:46.034Z,162.90
2023-03-05T14:24:16.494Z,160.57
2023-03-05T14:26:52.453Z,156.03
2023-03-05T14:29:24.268Z,138.13
2023-03-05T14:31:54.825Z,129.27
2023-03-05T14:34:30.241Z,150.77
2023-03-05T14:37:01.074Z,145.67
2023-03-05T14:39:33.024Z,138.33
2023-03-05T14:42:34.281Z,155.73
2023-03-05T14:45:13.873Z,163.97
2023-03-05T14:47:42.102Z,158.70
2023-03-05T14:50:13.081Z,154.37
2023-03-05T14:52:41.870Z,161.27
2023-03-05T14:55:16.342Z,159.60
2023-03-05T14:57:46.826Z,149.63
2023-03-05T15:00:19.417Z,143.77
2023-03-05T15:02:48.144Z,143.57
2023-03-05T15:05:16.299Z,140.77
2023-03-05T15:07:46.192Z,158.00
2023-03-05T15:10:16.970Z,168.40
2023-03-05T15:12:46.822Z,169.67
2023-03-05T15:15:15.872Z,168.07
2023-03-05T15:17:47.486Z,167.50
2023-03-05T15:20:18.767Z,172.47
2023-03-05T15:22:46.883Z,169.70
2023-03-05T15:25:16.459Z,169.47
2023-03-05T15:27:46.134Z,180.00
2023-03-05T15:30:23.119Z,175.13
2023-03-05T15:32:52.045Z,181.87
2023-03-05T15:35:20.784Z,193.07
2023-03-05T15:37:49.046Z,179.43
2023-03-05T15:40:18.993Z,182.33
2023-03-05T15:42:48.962Z,185.37
2023-03-05T15:45:17.975Z,183.07
2023-03-05T15:47:46.382Z,187.73
2023-03-05T15:50:14.600Z,182.83
2023-03-05T15:52:42.860Z,179.37
2023-03-05T15:55:12.143Z,184.37
2023-03-05T15:57:45.065Z,185.53
2023-03-05T16:00:17.768Z,186.93
2023-03-05T16:02:45.953Z,190.87
2023-03-05T16:05:14.347Z,191.30
2023-03-05T16:07:45.838Z,196.50
2023-03-05T16:10:17.588Z,203.00
2023-03-05T16:12:47.868Z,200.87
2023-03-05T16:15:21.129Z,192.40
2023-03-05T16:17:53.639Z,191.90
2023-03-05T16:20:23.129Z,191.33
2023-03-05T16:22:51.541Z,191.07
2023-03-05T16:25:19.866Z,184.87
2023-03-05T16:27:48.083Z,182.57
2023-03-05T16:30:18.555Z,187.37
2023-03-05T16:32:46.595Z,182.00
2023-03-05T16:35:14.801Z,176.27
2023-03-05T16:37:43.431Z,178.70
2023-03-05T16:40:13.254Z,178.93
2023-03-05T16:42:41.961Z,179.33
2023-03-05T16:45:12.091Z,173.17
2023-03-05T16:47:41.837Z,173.90
2023-03-05T16:50:11.784Z,171.53
2023-03-05T16:52:40.199Z,163.73
2023-03-05T16:55:09.572Z,171.23
2023-03-05T16:57:40.033Z,178.30
2023-03-05T17:00:11.779Z,178.20
2023-03-05T17:02:41.207Z,178.30
2023-03-05T17:05:09.582Z,166.20
2023-03-05T17:07:37.772Z,171.37
2023-03-05T17:10:06.889Z,172.53
2023-03-05T17:12:35.435Z,172.40
2023-03-05T17:15:03.731Z,171.20
2023-03-05T17:17:32.718Z,177.47
2023-03-05T17:20:02.284Z,185.53
2023-03-05T17:22:30.372Z,157.87
2023-03-05T17:24:58.354Z,165.33
2023-03-05T17:27:26.493Z,175.20
2023-03-05T17:29:54.725Z,169.60
2023-03-05T17:32:22.950Z,168.83
2023-03-05T17:34:54.952Z,171.40
2023-03-05T17:37:24.845Z,172.87
2023-03-05T17:39:53.188Z,175.80
2023-03-05T17:42:21.678Z,185.17
2023-03-05T17:44:50.258Z,169.23
2023-03-05T17:47:18.474Z,162.97
2023-03-05T17:49:46.825Z,180.37
2023-03-05T17:52:14.869Z,166.70
2023-03-05T17:54:44.458Z,168.67
2023-03-05T17:57:12.504Z,161.90
2023-03-05T17:59:40.516Z,163.57
2023-03-05T18:02:09.304Z,163.50
2023-03-05T18:04:37.353Z,181.63
2023-03-05T18:07:05.780Z,177.30
2023-03-05T18:09:34.093Z,175.53
2023-03-05T18:12:03.833Z,184.37
2023-03-05T18:14:31.836Z,184.43
2023-03-05T18:17:00.427Z,173.53
2023-03-05T18:19:28.620Z,165.60
2023-03-05T18:21:56.854Z,175.63
2023-03-05T18:24:25.118Z,174.07
2023-03-05T18:26:53.354Z,171.30
2023-03-05T18:29:22.977Z,178.57
2023-03-05T18:31:51.225Z,178.77
2023-03-05T18:34:21.244Z,184.97
2023-03-05T18:36:49.235Z,177.00
2023-03-05T18:39:18.683Z,173.27
2023-03-05T18:41:47.485Z,180.23
2023-03-05T18:44:16.348Z,155.83
2023-03-05T18:46:45.772Z,159.03
2023-03-05T18:49:13.869Z,159.27
2023-03-05T18:51:42.627Z,160.00
2023-03-05T18:54:11.575Z,155.53
2023-03-05T18:56:40.060Z,154.33
2023-03-05T18:59:08.252Z,164.63
2023-03-05T19:01:36.461Z,170.17
2023-03-05T19:04:06.493Z,163.00
2023-03-05T19:06:36.338Z,162.80
2023-03-05T19:09:10.804Z,178.67
2023-03-05T19:11:38.908Z,179.67
2023-03-05T19:14:07.046Z,172.50
2023-03-05T19:16:40.797Z,174.33
2023-03-05T19:19:16.548Z,176.00
2023-03-05T19:21:46.235Z,162.90
2023-03-05T19:24:15.046Z,173.80
2023-03-05T19:26:44.775Z,178.23
2023-03-05T19:29:13.645Z,167.50
2023-03-05T19:31:42.645Z,175.60
2023-03-05T19:34:12.384Z,172.53
2023-03-05T19:36:40.581Z,166.17
2023-03-05T19:39:09.586Z,163.73
2023-03-05T19:41:38.474Z,159.73
2023-03-05T19:44:07.512Z,158.90
2023-03-05T19:46:35.920Z,163.33
2023-03-05T19:49:04.178Z,152.73
2023-03-05T19:51:33.817Z,165.73
2023-03-05T19:54:03.434Z,162.77
2023-03-05T19:56:31.606Z,155.10
2023-03-05T19:58:59.876Z,164.87
2023-03-05T20:01:28.892Z,169.53
2023-03-05T20:03:58.469Z,151.87
2023-03-05T20:06:28.813Z,159.30
2023-03-05T20:08:59.649Z,156.53
2023-03-05T20:11:29.178Z,168.13
2023-03-05T20:13:57.409Z,165.90
2023-03-05T20:16:27.896Z,161.63
2023-03-05T20:18:57.489Z,155.37
2023-03-05T20:21:27.712Z,151.13
2023-03-05T20:23:58.729Z,161.40
2023-03-05T20:26:27.645Z,161.67
2023-03-05T20:28:57.479Z,165.33
2023-03-05T20:31:27.365Z,160.10
2023-03-05T20:33:56.334Z,157.93
2023-03-05T20:36:24.739Z,156.77
2023-03-05T20:38:53.014Z,163.43
2023-03-05T20:41:22.894Z,167.97
2023-03-05T20:43:52.421Z,164.87
2023-03-05T20:46:22.807Z,159.63
2023-03-05T20:48:52.357Z,151.70
2023-03-05T20:51:22.820Z,155.10
2023-03-05T20:53:51.256Z,164.03
2023-03-05T20:56:19.374Z,164.70
2023-03-05T20:58:48.878Z,155.33
2023-03-05T21:01:16.943Z,164.30
2023-03-05T21:03:45.011Z,163.83
2023-03-05T21:06:13.090Z,156.30
2023-03-05T21:08:41.192Z,162.07
2023-03-05T21:11:11.067Z,155.27
2023-03-05T21:13:39.474Z,148.73
2023-03-05T21:16:10.859Z,152.57
2023-03-05T21:18:38.998Z,146.40
2023-03-05T21:21:07.449Z,149.23
2023-03-05T21:23:35.976Z,157.03
2023-03-05T21:26:04.562Z,154.40
2023-03-05T21:28:33.137Z,152.93
2023-03-05T21:31:09.419Z,154.80
2023-03-05T21:33:37.877Z,154.20
2023-03-05T21:36:07.826Z,157.33
2023-03-05T21:38:35.893Z,146.83
2023-03-05T21:41:05.139Z,159.90
2023-03-05T21:43:33.475Z,157.77
2023-03-05T21:46:03.297Z,160.77
2023-03-05T21:48:33.324Z,156.00
2023-03-05T21:51:01.513Z,150.10
2023-03-05T21:53:29.583Z,152.37
2023-03-05T21:56:07.885Z,155.07
2023-03-05T21:58:36.881Z,150.03
2023-03-05T22:01:07.087Z,141.73
2023-03-05T22:03:36.501Z,149.90
2023-03-05T22:06:04.609Z,153.40
2023-03-05T22:08:32.640Z,147.10
2023-03-05T22:11:00.768Z,146.90
2023-03-05T22:13:28.744Z,148.47
2023-03-05T22:15:59.450Z,137.67
2023-03-05T22:18:29.922Z,137.33
2023-03-05T22:21:00.192Z,144.60
2023-03-05T22:23:30.606Z,145.63
2023-03-05T22:25:59.964Z,145.13
2023-03-05T22:28:28.521Z,149.40
2023-03-05T22:30:57.180Z,145.77
2023-03-05T22:33:25.888Z,154.30
2023-03-05T22:35:54.355Z,143.47
2023-03-05T22:38:24.400Z,144.87
2023-03-05T22:40:52.899Z,144.40
2023-03-05T22:43:21.718Z,145.20
2023-03-05T22:45:49.755Z,141.10
2023-03-05T22:48:17.971Z,140.93
2023-03-05T22:50:46.255Z,136.73
2023-03-05T22:53:14.229Z,147.33
2023-03-05T22:55:43.948Z,144.23
2023-03-05T22:58:12.015Z,144.53
2023-03-05T23:00:41.238Z,146.60
2023-03-05T23:03:09.387Z,137.50
2023-03-05T23:05:40.112Z,140.60
2023-03-05T23:08:08.588Z,143.23
2023-03-05T23:10:36.731Z,146.13
2023-03-05T23:13:06.152Z,144.47
2023-03-05T23:15:36.362Z,141.97
2023-03-05T23:18:07.885Z,134.57
2023-03-05T23:20:38.069Z,141.97
2023-03-05T23:23:06.375Z,139.50
2023-03-05T23:25:36.641Z,141.97
2023-03-05T23:28:06.392Z,141.27
2023-03-05T23:30:37.135Z,141.07
2023-03-05T23:33:07.014Z,141.00
2023-03-05T23:35:36.730Z,143.77
2023-03-05T23:38:08.425Z,129.40
2023-03-05T23:40:38.381Z,136.47
2023-03-05T23:43:07.964Z,145.00
2023-03-05T23:45:36.329Z,138.33
2023-03-05T23:48:04.556Z,136.17
2023-03-05T23:50:34.486Z,135.77
2023-03-05T23:53:03.270Z,127.57
2023-03-05T23:55:33.769Z,136.83
2023-03-05T23:58:02.244Z,129.77
